createdAt,value
2023-01-08T00:02:24.660Z,97437.06
2023-01-08T00:04:55.021Z,97445.09
2023-01-08T00:07:29.315Z,97451.47
2023-01-08T00:10:03.588Z,97434.78
2023-01-08T00:12:36.276Z,97427.34
2023-01-08T00:15:10.924Z,97430.47
2023-01-08T00:17:44.358Z,97429.25
2023-01-08T00:20:14.307Z,97425.97
2023-01-08T00:22:43.656Z,97416.94
2023-01-08T00:25:14.899Z,97421.06
2023-01-08T00:27:44.316Z,97418.19
2023-01-08T00:30:13.104Z,97418.63
2023-01-08T00:32:41.677Z,97432.25
2023-01-08T00:35:10.051Z,97429.56
2023-01-08T00:37:40.038Z,97431.00
2023-01-08T00:40:10.963Z,97431.00
2023-01-08T00:42:41.259Z,97422.34
2023-01-08T00:45:10.567Z,97421.53
2023-01-08T00:47:38.905Z,97425.25
2023-01-08T00:50:07.353Z,97415.81
2023-01-08T00:52:35.625Z,97413.34
2023-01-08T00:55:08.078Z,97411.13
2023-01-08T00:57:37.507Z,97414.88
2023-01-08T01:00:13.084Z,97417.97
2023-01-08T01:02:43.170Z,97429.97
2023-01-08T01:05:15.603Z,97422.16
2023-01-08T01:07:44.023Z,97427.31
2023-01-08T01:10:18.037Z,97425.47
2023-01-08T01:12:48.775Z,97419.47
2023-01-08T01:15:19.860Z,97420.50
2023-01-08T01:17:48.221Z,97414.53
2023-01-08T01:20:17.523Z,97415.75
2023-01-08T01:22:45.640Z,97409.78
2023-01-08T01:25:13.683Z,97402.16
2023-01-08T01:27:42.051Z,97402.97
2023-01-08T01:30:10.643Z,97394.34
2023-01-08T01:32:40.451Z,97403.59
2023-01-08T01:35:09.135Z,97397.59
2023-01-08T01:37:37.531Z,97400.09
2023-01-08T01:40:06.150Z,97399.91
2023-01-08T01:42:44.195Z,97402.00
2023-01-08T01:45:16.280Z,97394.59
2023-01-08T01:47:47.138Z,97386.81
2023-01-08T01:50:16.971Z,97388.69
2023-01-08T01:52:46.844Z,97394.66
2023-01-08T01:55:15.537Z,97381.31
2023-01-08T01:57:46.933Z,97365.44
2023-01-08T02:00:15.831Z,97360.50
2023-01-08T02:02:45.314Z,97360.09
2023-01-08T02:05:13.506Z,97367.50
2023-01-08T02:07:44.159Z,97362.16
2023-01-08T02:10:15.073Z,97364.66
2023-01-08T02:12:46.001Z,97366.69
2023-01-08T02:15:19.476Z,97365.06
2023-01-08T02:17:54.792Z,97367.53
2023-01-08T02:20:26.183Z,97361.81
2023-01-08T02:23:08.955Z,97365.50
2023-01-08T02:25:42.081Z,97354.84
2023-01-08T02:28:13.904Z,97359.34
2023-01-08T02:30:42.659Z,97347.66
2023-01-08T02:33:10.751Z,97351.53
2023-01-08T02:35:41.699Z,97358.13
2023-01-08T02:38:10.874Z,97365.34
2023-01-08T02:40:43.378Z,97361.00
2023-01-08T02:43:15.914Z,97349.28
2023-01-08T02:45:46.948Z,97352.38
2023-01-08T02:48:17.021Z,97362.44
2023-01-08T02:50:47.953Z,97361.84
2023-01-08T02:53:17.350Z,97360.59
2023-01-08T02:55:48.633Z,97349.09
2023-01-08T02:58:18.446Z,97351.13
2023-01-08T03:00:47.443Z,97358.53
2023-01-08T03:03:18.025Z,97359.56
2023-01-08T03:05:49.176Z,97362.22
2023-01-08T03:08:19.880Z,97356.28
2023-01-08T03:10:50.723Z,97346.59
2023-01-08T03:13:22.881Z,97357.28
2023-01-08T03:15:54.366Z,97355.63
2023-01-08T03:18:26.225Z,97353.38
2023-01-08T03:20:54.809Z,97352.38
2023-01-08T03:23:24.347Z,97346.22
2023-01-08T03:25:52.547Z,97328.72
2023-01-08T03:28:24.585Z,97341.06
2023-01-08T03:30:54.298Z,97336.94
2023-01-08T03:33:23.653Z,97330.97
2023-01-08T03:35:54.982Z,97308.75
2023-01-08T03:38:25.726Z,97317.00
2023-01-08T03:40:57.100Z,97318.00
2023-01-08T03:43:26.920Z,97315.16
2023-01-08T03:45:56.773Z,97308.38
2023-01-08T03:48:26.342Z,97324.41
2023-01-08T03:50:54.630Z,97335.91
2023-01-08T03:53:22.944Z,97342.91
2023-01-08T03:55:51.025Z,97333.03
2023-01-08T03:58:19.070Z,97315.34
2023-01-08T04:00:48.590Z,97327.69
2023-01-08T04:03:16.844Z,97330.97
2023-01-08T04:05:44.998Z,97321.50
2023-01-08T04:08:13.081Z,97323.78
2023-01-08T04:10:41.396Z,97317.41
2023-01-08T04:13:09.554Z,97318.63
2023-01-08T04:15:37.692Z,97318.22
2023-01-08T04:18:07.497Z,97313.69
2023-01-08T04:20:38.662Z,97306.28
2023-01-08T04:23:06.886Z,97305.66
2023-01-08T04:25:34.950Z,97302.13
2023-01-08T04:28:03.011Z,97300.91
2023-01-08T04:30:31.213Z,97300.47
2023-01-08T04:32:59.456Z,97302.31
2023-01-08T04:35:28.947Z,97306.44
2023-01-08T04:37:57.357Z,97297.59
2023-01-08T04:40:25.479Z,97279.84
2023-01-08T04:42:53.626Z,97275.53
2023-01-08T04:45:22.099Z,97267.72
2023-01-08T04:47:50.181Z,97269.75
2023-01-08T04:50:18.545Z,97281.06
2023-01-08T04:52:48.262Z,97286.41
2023-01-08T04:55:16.509Z,97281.84
2023-01-08T04:57:44.625Z,97292.53
2023-01-08T05:00:13.367Z,97302.59
2023-01-08T05:02:42.002Z,97309.81
2023-01-08T05:05:10.637Z,97328.59
2023-01-08T05:07:38.712Z,97331.31
2023-01-08T05:10:09.606Z,97332.38
2023-01-08T05:12:37.718Z,97334.41
2023-01-08T05:15:06.500Z,97321.06
2023-01-08T05:17:34.621Z,97291.47
2023-01-08T05:20:02.740Z,97268.03
2023-01-08T05:22:31.286Z,97280.38
2023-01-08T05:24:59.339Z,97293.53
2023-01-08T05:27:29.741Z,97291.06
2023-01-08T05:29:57.867Z,97290.25
2023-01-08T05:32:26.273Z,97275.44
2023-01-08T05:34:54.347Z,97259.41
2023-01-08T05:37:22.396Z,97243.78
2023-01-08T05:39:50.723Z,97224.06
2023-01-08T05:42:18.901Z,97207.81
2023-01-08T05:44:48.531Z,97205.34
2023-01-08T05:47:16.611Z,97201.66
2023-01-08T05:49:44.764Z,97215.44
2023-01-08T05:52:12.979Z,97223.03
2023-01-08T05:54:41.337Z,97227.53
2023-01-08T05:57:09.472Z,97229.41
2023-01-08T05:59:37.528Z,97231.88
2023-01-08T06:02:07.259Z,97219.56
2023-01-08T06:04:35.932Z,97226.31
2023-01-08T06:07:04.119Z,97210.91
2023-01-08T06:09:32.278Z,97215.44
2023-01-08T06:12:00.630Z,97226.53
2023-01-08T06:14:28.703Z,97217.91
2023-01-08T06:16:57.503Z,97223.28
2023-01-08T06:19:27.023Z,97213.81
2023-01-08T06:21:55.334Z,97215.03
2023-01-08T06:24:23.362Z,97216.69
2023-01-08T06:26:51.470Z,97203.94
2023-01-08T06:29:19.947Z,97198.59
2023-01-08T06:31:48.089Z,97205.81
2023-01-08T06:34:16.377Z,97203.94
2023-01-08T06:36:45.887Z,97203.53
2023-01-08T06:39:15.103Z,97210.31
2023-01-08T06:41:43.946Z,97212.56
2023-01-08T06:44:12.002Z,97194.06
2023-01-08T06:46:40.652Z,97181.34
2023-01-08T06:49:09.263Z,97185.84
2023-01-08T06:51:37.979Z,97180.50
2023-01-08T06:54:07.874Z,97168.78
2023-01-08T06:56:48.991Z,97166.13
2023-01-08T06:59:21.583Z,97157.50
2023-01-08T07:01:51.126Z,97165.72
2023-01-08T07:04:19.520Z,97172.31
2023-01-08T07:06:48.068Z,97186.69
2023-01-08T07:09:17.633Z,97188.31
2023-01-08T07:11:45.986Z,97181.56
2023-01-08T07:14:14.132Z,97186.25
2023-01-08T07:16:42.362Z,97188.53
2023-01-08T07:19:10.528Z,97171.66
2023-01-08T07:21:40.564Z,97164.50
2023-01-08T07:24:09.144Z,97151.53
2023-01-08T07:26:39.731Z,97146.44
2023-01-08T07:29:08.164Z,97149.69
2023-01-08T07:31:36.418Z,97148.69
2023-01-08T07:34:04.557Z,97138.59
2023-01-08T07:36:32.999Z,97135.31
2023-01-08T07:39:01.053Z,97141.09
2023-01-08T07:41:29.279Z,97143.13
2023-01-08T07:43:59.723Z,97134.94
2023-01-08T07:46:27.979Z,97133.50
2023-01-08T07:48:58.205Z,97133.50
2023-01-08T07:51:26.354Z,97128.56
2023-01-08T07:53:56.583Z,97132.88
2023-01-08T07:56:24.895Z,97136.56
2023-01-08T07:58:53.112Z,97134.53
2023-01-08T08:01:23.132Z,97138.22
2023-01-08T08:03:51.255Z,97141.47
2023-01-08T08:06:19.586Z,97141.91
2023-01-08T08:08:47.633Z,97139.03
2023-01-08T08:11:16.132Z,97142.94
2023-01-08T08:13:45.281Z,97146.81
2023-01-08T08:16:13.666Z,97152.75
2023-01-08T08:18:43.426Z,97158.09
2023-01-08T08:21:11.447Z,97148.06
2023-01-08T08:23:39.592Z,97153.41
2023-01-08T08:26:07.934Z,97162.00
2023-01-08T08:28:36.208Z,97167.78
2023-01-08T08:31:04.581Z,97152.97
2023-01-08T08:33:32.712Z,97155.88
2023-01-08T08:36:02.244Z,97153.59
2023-01-08T08:38:30.588Z,97155.03
2023-01-08T08:40:58.793Z,97146.44
2023-01-08T08:43:26.897Z,97155.84
2023-01-08T08:45:56.528Z,97156.69
2023-01-08T08:48:24.904Z,97146.81
2023-01-08T08:50:53.187Z,97154.03
2023-01-08T08:53:22.759Z,97151.78
2023-01-08T08:55:50.885Z,97152.78
2023-01-08T08:58:18.948Z,97143.13
2023-01-08T09:00:47.138Z,97129.56
2023-01-08T09:03:16.021Z,97129.97
2023-01-08T09:05:44.587Z,97135.31
2023-01-08T09:08:13.880Z,97131.41
2023-01-08T09:10:43.964Z,97134.09
2023-01-08T09:13:12.887Z,97118.47
2023-01-08T09:15:41.943Z,97126.28
2023-01-08T09:18:11.254Z,97123.81
2023-01-08T09:20:39.811Z,97138.16
2023-01-08T09:23:08.473Z,97138.16
2023-01-08T09:25:36.585Z,97136.50
2023-01-08T09:28:07.792Z,97133.63
2023-01-08T09:30:36.142Z,97137.75
2023-01-08T09:33:04.734Z,97129.53
2023-01-08T09:35:33.336Z,97134.03
2023-01-08T09:38:01.435Z,97135.84
2023-01-08T09:40:33.047Z,97137.09
2023-01-08T09:43:02.665Z,97133.63
2023-01-08T09:45:33.877Z,97126.84
2023-01-08T09:48:03.614Z,97124.19
2023-01-08T09:50:33.170Z,97122.53
2023-01-08T09:53:01.932Z,97121.31
2023-01-08T09:55:31.508Z,97117.41
2023-01-08T09:58:03.011Z,97127.06
2023-01-08T10:00:33.691Z,97118.84
2023-01-08T10:03:01.937Z,97118.47
2023-01-08T10:05:31.017Z,97110.66
2023-01-08T10:07:59.136Z,97105.16
2023-01-08T10:10:29.249Z,97102.88
2023-01-08T10:12:57.605Z,97098.78
2023-01-08T10:15:26.308Z,97092.78
2023-01-08T10:17:59.346Z,97095.22
2023-01-08T10:20:29.107Z,97093.16
2023-01-08T10:22:57.886Z,97090.78
2023-01-08T10:25:26.859Z,97085.66
2023-01-08T10:27:56.739Z,97084.59
2023-01-08T10:30:30.590Z,97084.97
2023-01-08T10:33:05.574Z,97082.84
2023-01-08T10:35:35.779Z,97090.44
2023-01-08T10:38:04.364Z,97088.56
2023-01-08T10:40:36.485Z,97082.63
2023-01-08T10:43:10.336Z,97068.78
2023-01-08T10:45:38.569Z,97063.69
2023-01-08T10:48:08.964Z,97052.72
2023-01-08T10:50:37.198Z,97041.63
2023-01-08T10:53:06.623Z,97038.00
2023-01-08T10:55:37.670Z,97041.63
2023-01-08T10:58:13.231Z,97044.56
2023-01-08T11:00:41.446Z,97042.53
2023-01-08T11:03:20.081Z,97040.25
2023-01-08T11:05:50.186Z,97044.22
2023-01-08T11:08:22.804Z,97030.44
2023-01-08T11:10:56.585Z,97027.53
2023-01-08T11:13:25.567Z,97027.72
2023-01-08T11:16:01.234Z,97030.13
2023-01-08T11:18:31.462Z,97027.66
2023-01-08T11:21:08.505Z,97030.03
2023-01-08T11:23:36.905Z,97022.44
2023-01-08T11:26:08.802Z,97024.13
2023-01-08T11:28:46.538Z,97014.59
2023-01-08T11:31:16.068Z,97008.16
2023-01-08T11:33:46.051Z,97002.66
2023-01-08T11:36:20.910Z,96986.84
2023-01-08T11:38:49.952Z,96984.97
2023-01-08T11:41:31.343Z,96990.31
2023-01-08T11:44:06.337Z,96981.84
2023-01-08T11:46:38.974Z,96989.88
2023-01-08T11:49:22.378Z,96985.94
2023-01-08T11:52:00.108Z,96988.84
2023-01-08T11:54:34.763Z,96996.16
2023-01-08T11:57:10.043Z,96994.81
2023-01-08T11:59:54.333Z,96989.91
2023-01-08T12:02:27.809Z,96987.53
2023-01-08T12:05:13.770Z,96986.47
2023-01-08T12:07:50.143Z,96976.50
2023-01-08T12:10:24.410Z,96983.00
2023-01-08T12:12:59.229Z,96984.19
2023-01-08T12:15:32.556Z,96985.81
2023-01-08T12:18:09.954Z,96980.84
2023-01-08T12:20:39.391Z,96985.59
2023-01-08T12:23:15.041Z,96973.97
2023-01-08T12:25:51.035Z,96979.47
2023-01-08T12:28:29.895Z,96982.13
2023-01-08T12:31:10.306Z,96972.53
2023-01-08T12:33:43.181Z,96973.13
2023-01-08T12:36:15.834Z,96969.50
2023-01-08T12:38:47.547Z,96968.63
2023-01-08T12:41:19.758Z,96964.81
2023-01-08T12:43:52.212Z,96966.44
2023-01-08T12:46:22.469Z,96960.38
2023-01-08T12:48:57.935Z,96963.03
2023-01-08T12:51:34.147Z,96958.59
2023-01-08T12:54:14.666Z,96951.25
2023-01-08T12:56:50.816Z,96946.94
2023-01-08T12:59:34.595Z,96942.94
2023-01-08T13:02:19.763Z,96931.06
2023-01-08T13:04:55.263Z,96936.41
2023-01-08T13:07:25.605Z,96922.66
2023-01-08T13:10:02.913Z,96918.34
2023-01-08T13:12:41.526Z,96917.28
2023-01-08T13:15:25.763Z,96931.75
2023-01-08T13:17:58.575Z,96924.50
2023-01-08T13:20:27.662Z,96929.28
2023-01-08T13:22:56.848Z,96914.44
2023-01-08T13:25:33.265Z,96913.88
2023-01-08T13:28:05.749Z,96910.22
2023-01-08T13:30:35.819Z,96912.31
2023-01-08T13:33:10.438Z,96924.31
2023-01-08T13:35:45.515Z,96913.53
2023-01-08T13:38:21.136Z,96907.41
2023-01-08T13:40:58.976Z,96912.03
2023-01-08T13:43:34.992Z,96917.13
2023-01-08T13:46:15.446Z,96915.97
2023-01-08T13:48:57.437Z,96915.38
2023-01-08T13:51:37.088Z,96927.69
2023-01-08T13:54:17.610Z,96931.28
2023-01-08T13:56:58.382Z,96931.63
2023-01-08T13:59:36.230Z,96933.47
2023-01-08T14:02:27.156Z,96936.50
2023-01-08T14:05:03.199Z,96933.59
2023-01-08T14:07:36.907Z,96931.88
2023-01-08T14:10:11.267Z,96949.06
2023-01-08T14:12:42.215Z,96955.63
2023-01-08T14:15:22.635Z,96956.34
2023-01-08T14:17:57.965Z,96960.31
2023-01-08T14:20:37.366Z,96958.19
2023-01-08T14:23:12.000Z,96956.75
2023-01-08T14:25:48.230Z,96962.03
2023-01-08T14:28:21.074Z,96959.31
2023-01-08T14:30:54.775Z,96964.69
2023-01-08T14:33:31.648Z,96955.38
2023-01-08T14:36:08.494Z,96964.47
2023-01-08T14:38:38.076Z,96959.44
2023-01-08T14:41:12.668Z,96960.50
2023-01-08T14:43:47.369Z,96961.25
2023-01-08T14:46:23.178Z,96976.25
2023-01-08T14:48:53.714Z,96974.03
2023-01-08T14:51:28.735Z,96980.59
2023-01-08T14:54:05.977Z,96978.06
2023-01-08T14:56:41.447Z,96994.91
2023-01-08T14:59:24.070Z,97000.28
2023-01-08T15:02:00.099Z,97004.72
2023-01-08T15:04:32.981Z,97002.63
2023-01-08T15:07:12.264Z,97010.34
2023-01-08T15:09:46.316Z,97016.53
2023-01-08T15:12:24.446Z,97027.53
2023-01-08T15:14:57.072Z,97022.41
2023-01-08T15:17:31.687Z,97021.38
2023-01-08T15:20:04.737Z,97022.63
2023-01-08T15:22:33.339Z,97015.38
2023-01-08T15:25:05.220Z,97021.56
2023-01-08T15:27:38.755Z,97026.72
2023-01-08T15:30:31.104Z,97027.53
2023-01-08T15:33:19.865Z,97033.94
2023-01-08T15:35:50.319Z,97033.72
2023-01-08T15:38:20.935Z,97031.50
2023-01-08T15:40:53.728Z,97041.66
2023-01-08T15:43:24.408Z,97041.66
2023-01-08T15:45:58.463Z,97048.63
2023-01-08T15:48:37.521Z,97054.34
2023-01-08T15:51:11.592Z,97053.28
2023-01-08T15:53:46.091Z,97059.94
2023-01-08T15:56:22.397Z,97052.56
2023-01-08T15:58:56.166Z,97047.38
2023-01-08T16:01:33.658Z,97045.34
2023-01-08T16:04:11.223Z,97043.03
2023-01-08T16:06:46.687Z,97052.69
2023-01-08T16:09:21.433Z,97051.56
2023-01-08T16:11:54.120Z,97067.19
2023-01-08T16:14:27.042Z,97060.50
2023-01-08T16:17:02.832Z,97074.78
2023-01-08T16:19:37.094Z,97087.84
2023-01-08T16:22:05.187Z,97090.38
2023-01-08T16:24:34.104Z,97099.44
2023-01-08T16:27:06.537Z,97099.72
2023-01-08T16:29:41.431Z,97108.25
2023-01-08T16:32:16.931Z,97106.47
2023-01-08T16:34:50.148Z,97117.84
2023-01-08T16:37:23.678Z,97120.78
2023-01-08T16:39:58.807Z,97110.53
2023-01-08T16:42:30.511Z,97120.47
2023-01-08T16:44:58.874Z,97123.88
2023-01-08T16:47:27.083Z,97124.91
2023-01-08T16:49:56.664Z,97135.03
2023-01-08T16:52:25.041Z,97142.50
2023-01-08T16:54:53.172Z,97136.13
2023-01-08T16:57:21.220Z,97143.78
2023-01-08T16:59:49.477Z,97146.91
2023-01-08T17:02:19.417Z,97157.81
2023-01-08T17:04:49.861Z,97150.88
2023-01-08T17:07:26.305Z,97167.50
2023-01-08T17:10:00.792Z,97163.63
2023-01-08T17:12:36.575Z,97164.44
2023-01-08T17:15:11.379Z,97174.50
2023-01-08T17:17:48.031Z,97178.22
2023-01-08T17:20:16.223Z,97183.56
2023-01-08T17:22:47.002Z,97196.94
2023-01-08T17:25:15.144Z,97193.84
2023-01-08T17:27:43.858Z,97203.53
2023-01-08T17:30:17.549Z,97203.91
2023-01-08T17:32:52.313Z,97216.25
2023-01-08T17:35:22.051Z,97217.47
2023-01-08T17:37:51.818Z,97224.28
2023-01-08T17:40:20.070Z,97235.13
2023-01-08T17:42:48.409Z,97236.38
2023-01-08T17:45:17.389Z,97261.88
2023-01-08T17:47:45.520Z,97254.47
2023-01-08T17:50:13.793Z,97263.09
2023-01-08T17:52:41.824Z,97264.34
2023-01-08T17:55:11.732Z,97278.53
2023-01-08T17:57:45.100Z,97285.72
2023-01-08T18:00:20.229Z,97290.88
2023-01-08T18:02:53.456Z,97293.13
2023-01-08T18:05:27.483Z,97291.06
2023-01-08T18:07:56.975Z,97289.44
2023-01-08T18:10:32.215Z,97305.88
2023-01-08T18:13:02.160Z,97300.56
2023-01-08T18:15:30.346Z,97303.66
2023-01-08T18:17:58.586Z,97299.53
2023-01-08T18:20:26.713Z,97303.63
2023-01-08T18:22:54.829Z,97300.13
2023-01-08T18:25:23.181Z,97297.88
2023-01-08T18:27:52.720Z,97305.06
2023-01-08T18:30:20.985Z,97314.94
2023-01-08T18:32:49.020Z,97314.31
2023-01-08T18:35:18.530Z,97328.31
2023-01-08T18:37:46.592Z,97334.25
2023-01-08T18:40:15.520Z,97342.06
2023-01-08T18:42:43.541Z,97348.88
2023-01-08T18:45:15.247Z,97349.25
2023-01-08T18:47:43.715Z,97356.91
2023-01-08T18:50:12.296Z,97360.59
2023-01-08T18:52:42.081Z,97363.47
2023-01-08T18:55:10.589Z,97382.41
2023-01-08T18:57:39.436Z,97386.91
2023-01-08T19:00:08.339Z,97391.66
2023-01-08T19:02:38.000Z,97395.56
2023-01-08T19:05:06.403Z,97415.31
2023-01-08T19:07:34.633Z,97423.97
2023-01-08T19:10:02.937Z,97418.41
2023-01-08T19:12:34.589Z,97430.56
2023-01-08T19:15:02.689Z,97436.94
2023-01-08T19:17:31.496Z,97437.94
2023-01-08T19:20:01.407Z,97447.00
2023-01-08T19:22:32.091Z,97442.06
2023-01-08T19:25:00.476Z,97439.00
2023-01-08T19:27:28.542Z,97447.38
2023-01-08T19:29:56.556Z,97449.47
2023-01-08T19:32:25.106Z,97457.47
2023-01-08T19:34:53.672Z,97459.34
2023-01-08T19:37:23.663Z,97463.44
2023-01-08T19:39:51.777Z,97465.91
2023-01-08T19:42:37.255Z,97458.28
2023-01-08T19:45:05.850Z,97472.66
2023-01-08T19:47:34.347Z,97479.88
2023-01-08T19:50:03.017Z,97485.84
2023-01-08T19:52:32.744Z,97496.34
2023-01-08T19:55:01.642Z,97495.50
2023-01-08T19:57:29.884Z,97501.69
2023-01-08T19:59:57.964Z,97512.84
2023-01-08T20:02:26.394Z,97522.72
2023-01-08T20:04:54.931Z,97519.84
2023-01-08T20:07:23.201Z,97525.41
2023-01-08T20:09:52.851Z,97531.59
2023-01-08T20:12:21.124Z,97532.63
2023-01-08T20:14:49.573Z,97527.69
2023-01-08T20:17:18.596Z,97532.22
2023-01-08T20:19:48.837Z,97530.59
2023-01-08T20:22:18.375Z,97539.25
2023-01-08T20:24:46.754Z,97553.03
2023-01-08T20:27:16.859Z,97555.72
2023-01-08T20:29:45.068Z,97563.94
2023-01-08T20:32:13.359Z,97569.28
2023-01-08T20:34:42.273Z,97566.38
2023-01-08T20:37:10.866Z,97572.97
2023-01-08T20:39:39.060Z,97573.78
2023-01-08T20:42:08.454Z,97575.84
2023-01-08T20:44:38.463Z,97586.94
2023-01-08T20:47:06.914Z,97587.53
2023-01-08T20:49:35.192Z,97578.50
2023-01-08T20:52:03.658Z,97579.50
2023-01-08T20:54:31.871Z,97586.53
2023-01-08T20:57:00.621Z,97589.00
2023-01-08T20:59:29.358Z,97590.44
2023-01-08T21:01:59.023Z,97587.56
2023-01-08T21:04:27.198Z,97592.50
2023-01-08T21:06:55.526Z,97592.75
2023-01-08T21:09:23.604Z,97598.69
2023-01-08T21:11:52.303Z,97610.84
2023-01-08T21:14:20.649Z,97609.59
2023-01-08T21:16:48.833Z,97599.28
2023-01-08T21:19:18.566Z,97601.97
2023-01-08T21:21:47.292Z,97607.50
2023-01-08T21:24:15.531Z,97605.44
2023-01-08T21:26:45.758Z,97616.94
2023-01-08T21:29:13.977Z,97619.00
2023-01-08T21:31:42.758Z,97620.22
2023-01-08T21:34:11.868Z,97620.22
2023-01-08T21:36:41.900Z,97620.56
2023-01-08T21:39:11.593Z,97617.28
2023-01-08T21:41:57.404Z,97628.81
2023-01-08T21:44:43.966Z,97629.41
2023-01-08T21:47:13.349Z,97631.22
2023-01-08T21:49:41.525Z,97636.16
2023-01-08T21:52:29.063Z,97639.84
2023-01-08T21:54:58.272Z,97639.66
2023-01-08T21:57:28.022Z,97632.25
2023-01-08T21:59:57.018Z,97631.63
2023-01-08T22:02:25.954Z,97646.41
2023-01-08T22:04:55.379Z,97639.78
2023-01-08T22:07:25.050Z,97639.38
2023-01-08T22:09:53.301Z,97646.75
2023-01-08T22:12:22.791Z,97651.03
2023-01-08T22:14:52.900Z,97648.38
2023-01-08T22:17:21.613Z,97653.09
2023-01-08T22:19:49.895Z,97654.50
2023-01-08T22:22:18.040Z,97661.88
2023-01-08T22:24:47.820Z,97662.91
2023-01-08T22:27:16.021Z,97663.28
2023-01-08T22:29:44.261Z,97664.31
2023-01-08T22:32:12.817Z,97672.09
2023-01-08T22:34:41.196Z,97676.81
2023-01-08T22:37:09.465Z,97675.34
2023-01-08T22:39:37.710Z,97675.34
2023-01-08T22:42:07.294Z,97679.88
2023-01-08T22:44:35.424Z,97681.91
2023-01-08T22:47:06.082Z,97673.06
2023-01-08T22:49:34.666Z,97677.56
2023-01-08T22:52:02.747Z,97669.75
2023-01-08T22:54:30.896Z,97676.13
2023-01-08T22:56:59.223Z,97677.97
2023-01-08T22:59:28.805Z,97685.97
2023-01-08T23:01:57.017Z,97677.72
2023-01-08T23:04:25.091Z,97687.81
2023-01-08T23:06:53.166Z,97691.75
2023-01-08T23:09:21.284Z,97701.47
2023-01-08T23:11:49.305Z,97710.38
2023-01-08T23:14:17.969Z,97732.19
2023-01-08T23:16:47.576Z,97720.66
2023-01-08T23:19:15.936Z,97716.16
2023-01-08T23:21:44.412Z,97710.81
2023-01-08T23:24:12.843Z,97707.50
2023-01-08T23:26:40.926Z,97707.88
2023-01-08T23:29:09.563Z,97708.28
2023-01-08T23:31:38.596Z,97718.72
2023-01-08T23:34:08.249Z,97724.25
2023-01-08T23:36:36.466Z,97713.13
2023-01-08T23:39:04.945Z,97707.78
2023-01-08T23:41:35.003Z,97725.28
2023-01-08T23:44:05.896Z,97732.47
2023-01-08T23:46:34.260Z,97744.88
2023-01-08T23:49:02.363Z,97749.44
2023-01-08T23:51:31.917Z,97758.59
2023-01-08T23:54:00.233Z,97755.75
2023-01-08T23:56:28.519Z,97770.84
2023-01-08T23:58:56.561Z,97769.03
